sensor_id;sensor_type;location;lat;lon;timestamp;P1;durP1;ratioP1;P2;durP2;ratioP2
26600;SDS011;14241;49.260;10.496;2024-02-26T00:01:00;6.03;;;4.90;;
26600;SDS011;14241;49.260;10.496;2024-02-26T00:03:25;6.60;;;4.85;;
26600;SDS011;14241;49.260;10.496;2024-02-26T00:05:51;7.13;;;5.05;;
26600;SDS011;14241;49.260;10.496;2024-02-26T00:08:16;7.97;;;5.15;;
26600;SDS011;14241;49.260;10.496;2024-02-26T00:10:41;6.30;;;5.38;;
26600;SDS011;14241;49.260;10.496;2024-02-26T00:13:07;6.20;;;5.50;;
26600;SDS011;14241;49.260;10.496;2024-02-26T00:15:33;7.65;;;5.20;;
26600;SDS011;14241;49.260;10.496;2024-02-26T00:18:00;6.82;;;5.50;;
26600;SDS011;14241;49.260;10.496;2024-02-26T00:20:25;5.97;;;5.10;;
26600;SDS011;14241;49.260;10.496;2024-02-26T00:22:51;7.15;;;5.40;;
26600;SDS011;14241;49.260;10.496;2024-02-26T00:25:17;6.60;;;5.70;;
26600;SDS011;14241;49.260;10.496;2024-02-26T00:27:42;7.32;;;5.78;;
26600;SDS011;14241;49.260;10.496;2024-02-26T00:30:09;7.88;;;6.22;;
26600;SDS011;14241;49.260;10.496;2024-02-26T00:32:34;6.30;;;5.70;;
26600;SDS011;14241;49.260;10.496;2024-02-26T00:34:59;6.82;;;6.13;;
26600;SDS011;14241;49.260;10.496;2024-02-26T00:37:24;7.72;;;6.35;;
26600;SDS011;14241;49.260;10.496;2024-02-26T00:39:50;6.85;;;6.15;;
26600;SDS011;14241;49.260;10.496;2024-02-26T00:42:15;7.95;;;6.50;;
26600;SDS011;14241;49.260;10.496;2024-02-26T00:44:40;7.90;;;6.60;;
26600;SDS011;14241;49.260;10.496;2024-02-26T00:47:05;8.07;;;6.32;;
26600;SDS011;14241;49.260;10.496;2024-02-26T00:49:31;6.95;;;6.15;;
26600;SDS011;14241;49.260;10.496;2024-02-26T00:51:56;7.38;;;6.68;;
26600;SDS011;14241;49.260;10.496;2024-02-26T00:54:21;8.75;;;7.20;;
26600;SDS011;14241;49.260;10.496;2024-02-26T00:56:46;9.07;;;6.75;;
26600;SDS011;14241;49.260;10.496;2024-02-26T00:59:12;7.68;;;6.88;;
26600;SDS011;14241;49.260;10.496;2024-02-26T01:01:37;8.60;;;7.07;;
26600;SDS011;14241;49.260;10.496;2024-02-26T01:04:02;8.63;;;6.50;;
26600;SDS011;14241;49.260;10.496;2024-02-26T01:06:28;10.05;;;7.63;;
26600;SDS011;14241;49.260;10.496;2024-02-26T01:08:53;7.55;;;6.75;;
26600;SDS011;14241;49.260;10.496;2024-02-26T01:11:19;8.55;;;6.90;;
26600;SDS011;14241;49.260;10.496;2024-02-26T01:13:44;9.15;;;7.50;;
26600;SDS011;14241;49.260;10.496;2024-02-26T01:16:09;7.68;;;6.72;;
26600;SDS011;14241;49.260;10.496;2024-02-26T01:18:36;8.98;;;7.07;;
26600;SDS011;14241;49.260;10.496;2024-02-26T01:21:01;8.45;;;7.28;;
26600;SDS011;14241;49.260;10.496;2024-02-26T01:23:26;8.95;;;7.75;;
26600;SDS011;14241;49.260;10.496;2024-02-26T01:25:52;8.15;;;7.32;;
26600;SDS011;14241;49.260;10.496;2024-02-26T01:28:17;9.65;;;7.93;;
26600;SDS011;14241;49.260;10.496;2024-02-26T01:30:42;8.93;;;7.30;;
26600;SDS011;14241;49.260;10.496;2024-02-26T01:33:07;9.20;;;8.18;;
26600;SDS011;14241;49.260;10.496;2024-02-26T01:35:33;8.98;;;7.68;;
26600;SDS011;14241;49.260;10.496;2024-02-26T01:37:58;10.63;;;8.15;;
26600;SDS011;14241;49.260;10.496;2024-02-26T01:40:26;8.07;;;7.25;;
26600;SDS011;14241;49.260;10.496;2024-02-26T01:42:52;8.55;;;7.65;;
26600;SDS011;14241;49.260;10.496;2024-02-26T01:45:17;9.25;;;7.75;;
26600;SDS011;14241;49.260;10.496;2024-02-26T01:47:52;8.57;;;7.45;;
26600;SDS011;14241;49.260;10.496;2024-02-26T01:50:17;9.98;;;7.53;;
26600;SDS011;14241;49.260;10.496;2024-02-26T01:52:43;8.88;;;7.82;;
26600;SDS011;14241;49.260;10.496;2024-02-26T01:55:09;11.05;;;8.02;;
26600;SDS011;14241;49.260;10.496;2024-02-26T01:57:34;8.80;;;7.55;;
26600;SDS011;14241;49.260;10.496;2024-02-26T02:00:00;13.50;;;7.38;;
26600;SDS011;14241;49.260;10.496;2024-02-26T02:02:25;9.02;;;8.00;;
26600;SDS011;14241;49.260;10.496;2024-02-26T02:04:51;9.43;;;7.43;;
26600;SDS011;14241;49.260;10.496;2024-02-26T02:07:16;9.50;;;7.63;;
26600;SDS011;14241;49.260;10.496;2024-02-26T02:09:42;8.98;;;7.13;;
26600;SDS011;14241;49.260;10.496;2024-02-26T02:12:07;8.32;;;6.72;;
26600;SDS011;14241;49.260;10.496;2024-02-26T02:14:33;10.75;;;6.97;;
26600;SDS011;14241;49.260;10.496;2024-02-26T02:16:58;10.18;;;7.28;;
26600;SDS011;14241;49.260;10.496;2024-02-26T02:19:23;8.13;;;6.70;;
26600;SDS011;14241;49.260;10.496;2024-02-26T02:21:49;11.10;;;6.85;;
26600;SDS011;14241;49.260;10.496;2024-02-26T02:24:14;8.00;;;6.88;;
26600;SDS011;14241;49.260;10.496;2024-02-26T02:26:39;6.97;;;6.28;;
26600;SDS011;14241;49.260;10.496;2024-02-26T02:29:05;8.32;;;7.00;;
26600;SDS011;14241;49.260;10.496;2024-02-26T02:31:31;9.38;;;6.82;;
26600;SDS011;14241;49.260;10.496;2024-02-26T02:33:57;7.65;;;6.85;;
26600;SDS011;14241;49.260;10.496;2024-02-26T02:36:22;7.53;;;6.47;;
26600;SDS011;14241;49.260;10.496;2024-02-26T02:38:48;6.95;;;5.88;;
26600;SDS011;14241;49.260;10.496;2024-02-26T02:41:15;7.40;;;6.15;;
26600;SDS011;14241;49.260;10.496;2024-02-26T02:43:40;8.23;;;6.13;;
26600;SDS011;14241;49.260;10.496;2024-02-26T02:46:05;7.72;;;6.35;;
26600;SDS011;14241;49.260;10.496;2024-02-26T02:48:31;9.80;;;6.60;;
26600;SDS011;14241;49.260;10.496;2024-02-26T02:50:56;8.25;;;6.32;;
26600;SDS011;14241;49.260;10.496;2024-02-26T02:53:21;7.13;;;6.32;;
26600;SDS011;14241;49.260;10.496;2024-02-26T02:55:46;7.57;;;6.65;;
26600;SDS011;14241;49.260;10.496;2024-02-26T02:58:12;8.38;;;6.30;;
26600;SDS011;14241;49.260;10.496;2024-02-26T03:00:37;8.73;;;6.43;;
26600;SDS011;14241;49.260;10.496;2024-02-26T03:03:02;7.25;;;6.13;;
26600;SDS011;14241;49.260;10.496;2024-02-26T03:05:28;7.03;;;6.00;;
26600;SDS011;14241;49.260;10.496;2024-02-26T03:07:53;7.03;;;5.85;;
26600;SDS011;14241;49.260;10.496;2024-02-26T03:10:18;7.97;;;6.15;;
26600;SDS011;14241;49.260;10.496;2024-02-26T03:12:43;8.50;;;6.60;;
26600;SDS011;14241;49.260;10.496;2024-02-26T03:15:09;8.40;;;5.75;;
26600;SDS011;14241;49.260;10.496;2024-02-26T03:17:36;8.57;;;5.63;;
26600;SDS011;14241;49.260;10.496;2024-02-26T03:20:01;7.53;;;5.88;;
26600;SDS011;14241;49.260;10.496;2024-02-26T03:22:28;7.50;;;5.97;;
26600;SDS011;14241;49.260;10.496;2024-02-26T03:24:54;7.03;;;6.10;;
26600;SDS011;14241;49.260;10.496;2024-02-26T03:27:19;7.00;;;6.03;;
26600;SDS011;14241;49.260;10.496;2024-02-26T03:29:44;7.65;;;6.30;;
26600;SDS011;14241;49.260;10.496;2024-02-26T03:32:10;8.32;;;6.30;;
26600;SDS011;14241;49.260;10.496;2024-02-26T03:34:35;7.30;;;5.85;;
26600;SDS011;14241;49.260;10.496;2024-02-26T03:37:00;7.45;;;5.45;;
26600;SDS011;14241;49.260;10.496;2024-02-26T03:39:26;6.50;;;5.88;;
26600;SDS011;14241;49.260;10.496;2024-02-26T03:41:51;7.53;;;6.15;;
26600;SDS011;14241;49.260;10.496;2024-02-26T03:44:16;10.23;;;6.00;;
26600;SDS011;14241;49.260;10.496;2024-02-26T03:46:42;9.25;;;6.97;;
26600;SDS011;14241;49.260;10.496;2024-02-26T03:49:10;8.48;;;6.43;;
26600;SDS011;14241;49.260;10.496;2024-02-26T03:51:35;9.95;;;6.28;;
26600;SDS011;14241;49.260;10.496;2024-02-26T03:54:01;7.15;;;5.75;;
26600;SDS011;14241;49.260;10.496;2024-02-26T03:56:27;7.93;;;5.50;;
26600;SDS011;14241;49.260;10.496;2024-02-26T03:58:52;7.80;;;5.80;;
26600;SDS011;14241;49.260;10.496;2024-02-26T04:01:18;7.65;;;5.60;;
26600;SDS011;14241;49.260;10.496;2024-02-26T04:03:43;7.93;;;5.65;;
26600;SDS011;14241;49.260;10.496;2024-02-26T04:06:09;7.15;;;5.90;;
26600;SDS011;14241;49.260;10.496;2024-02-26T04:08:35;6.00;;;5.40;;
26600;SDS011;14241;49.260;10.496;2024-02-26T04:11:01;6.20;;;5.47;;
26600;SDS011;14241;49.260;10.496;2024-02-26T04:13:26;7.97;;;6.60;;
26600;SDS011;14241;49.260;10.496;2024-02-26T04:15:51;8.02;;;6.05;;
26600;SDS011;14241;49.260;10.496;2024-02-26T04:18:16;6.97;;;5.82;;
26600;SDS011;14241;49.260;10.496;2024-02-26T04:20:42;8.35;;;6.40;;
26600;SDS011;14241;49.260;10.496;2024-02-26T04:23:07;10.90;;;6.72;;
26600;SDS011;14241;49.260;10.496;2024-02-26T04:25:32;8.13;;;6.18;;
26600;SDS011;14241;49.260;10.496;2024-02-26T04:27:58;7.65;;;6.60;;
26600;SDS011;14241;49.260;10.496;2024-02-26T04:30:23;9.10;;;6.50;;
26600;SDS011;14241;49.260;10.496;2024-02-26T04:32:48;7.22;;;6.30;;
26600;SDS011;14241;49.260;10.496;2024-02-26T04:35:14;9.30;;;6.40;;
26600;SDS011;14241;49.260;10.496;2024-02-26T04:37:39;8.43;;;6.55;;
26600;SDS011;14241;49.260;10.496;2024-02-26T04:40:05;7.97;;;6.40;;
26600;SDS011;14241;49.260;10.496;2024-02-26T04:42:30;11.75;;;6.78;;
26600;SDS011;14241;49.260;10.496;2024-02-26T04:44:56;8.05;;;6.38;;
26600;SDS011;14241;49.260;10.496;2024-02-26T04:47:21;7.60;;;6.70;;
26600;SDS011;14241;49.260;10.496;2024-02-26T04:49:50;8.15;;;6.30;;
26600;SDS011;14241;49.260;10.496;2024-02-26T04:52:15;9.65;;;7.07;;
26600;SDS011;14241;49.260;10.496;2024-02-26T04:54:41;6.90;;;6.18;;
26600;SDS011;14241;49.260;10.496;2024-02-26T04:57:06;9.45;;;7.20;;
26600;SDS011;14241;49.260;10.496;2024-02-26T04:59:31;7.88;;;6.40;;
26600;SDS011;14241;49.260;10.496;2024-02-26T05:01:57;7.90;;;7.10;;
26600;SDS011;14241;49.260;10.496;2024-02-26T05:04:22;8.60;;;7.55;;
26600;SDS011;14241;49.260;10.496;2024-02-26T05:06:47;8.52;;;7.35;;
26600;SDS011;14241;49.260;10.496;2024-02-26T05:09:13;11.32;;;7.63;;
26600;SDS011;14241;49.260;10.496;2024-02-26T05:11:38;9.85;;;7.20;;
26600;SDS011;14241;49.260;10.496;2024-02-26T05:14:03;11.55;;;7.70;;
26600;SDS011;14241;49.260;10.496;2024-02-26T05:16:28;9.40;;;7.50;;
26600;SDS011;14241;49.260;10.496;2024-02-26T05:18:56;9.43;;;7.50;;
26600;SDS011;14241;49.260;10.496;2024-02-26T05:21:21;10.20;;;8.15;;
26600;SDS011;14241;49.260;10.496;2024-02-26T05:23:46;8.82;;;7.45;;
26600;SDS011;14241;49.260;10.496;2024-02-26T05:26:12;9.30;;;7.70;;
26600;SDS011;14241;49.260;10.496;2024-02-26T05:28:44;9.18;;;7.28;;
26600;SDS011;14241;49.260;10.496;2024-02-26T05:31:12;9.98;;;7.60;;
26600;SDS011;14241;49.260;10.496;2024-02-26T05:33:37;12.02;;;8.20;;
26600;SDS011;14241;49.260;10.496;2024-02-26T05:36:02;9.98;;;8.20;;
26600;SDS011;14241;49.260;10.496;2024-02-26T05:38:29;9.55;;;7.82;;
26600;SDS011;14241;49.260;10.496;2024-02-26T05:40:54;11.63;;;8.38;;
26600;SDS011;14241;49.260;10.496;2024-02-26T05:43:19;11.13;;;8.20;;
26600;SDS011;14241;49.260;10.496;2024-02-26T05:45:45;10.57;;;8.25;;
26600;SDS011;14241;49.260;10.496;2024-02-26T05:48:10;10.27;;;8.35;;
26600;SDS011;14241;49.260;10.496;2024-02-26T05:50:35;11.70;;;8.68;;
26600;SDS011;14241;49.260;10.496;2024-02-26T05:53:00;11.05;;;8.25;;
26600;SDS011;14241;49.260;10.496;2024-02-26T05:55:26;10.65;;;8.68;;
26600;SDS011;14241;49.260;10.496;2024-02-26T05:57:51;9.55;;;8.40;;
26600;SDS011;14241;49.260;10.496;2024-02-26T06:00:16;9.02;;;7.88;;
26600;SDS011;14241;49.260;10.496;2024-02-26T06:02:42;9.45;;;8.30;;
26600;SDS011;14241;49.260;10.496;2024-02-26T06:05:07;11.80;;;8.35;;
26600;SDS011;14241;49.260;10.496;2024-02-26T06:07:34;11.18;;;8.25;;
26600;SDS011;14241;49.260;10.496;2024-02-26T06:10:00;9.30;;;7.95;;
26600;SDS011;14241;49.260;10.496;2024-02-26T06:12:25;10.32;;;8.93;;
26600;SDS011;14241;49.260;10.496;2024-02-26T06:14:51;10.32;;;8.95;;
26600;SDS011;14241;49.260;10.496;2024-02-26T06:17:16;10.38;;;7.93;;
26600;SDS011;14241;49.260;10.496;2024-02-26T06:19:42;11.45;;;9.38;;
26600;SDS011;14241;49.260;10.496;2024-02-26T06:22:07;9.93;;;8.90;;
26600;SDS011;14241;49.260;10.496;2024-02-26T06:24:32;11.15;;;9.07;;
26600;SDS011;14241;49.260;10.496;2024-02-26T06:26:58;10.98;;;8.82;;
26600;SDS011;14241;49.260;10.496;2024-02-26T06:29:23;10.57;;;9.02;;
26600;SDS011;14241;49.260;10.496;2024-02-26T06:31:48;11.27;;;9.18;;
26600;SDS011;14241;49.260;10.496;2024-02-26T06:34:15;12.50;;;9.48;;
26600;SDS011;14241;49.260;10.496;2024-02-26T06:36:41;14.13;;;9.43;;
26600;SDS011;14241;49.260;10.496;2024-02-26T06:39:06;12.45;;;9.10;;
26600;SDS011;14241;49.260;10.496;2024-02-26T06:41:31;10.85;;;9.05;;
26600;SDS011;14241;49.260;10.496;2024-02-26T06:43:57;12.02;;;9.02;;
26600;SDS011;14241;49.260;10.496;2024-02-26T06:46:22;11.30;;;9.25;;
26600;SDS011;14241;49.260;10.496;2024-02-26T06:48:48;14.52;;;9.73;;
26600;SDS011;14241;49.260;10.496;2024-02-26T06:51:13;14.32;;;10.13;;
26600;SDS011;14241;49.260;10.496;2024-02-26T06:53:39;12.40;;;9.75;;
26600;SDS011;14241;49.260;10.496;2024-02-26T06:56:04;12.63;;;9.75;;
26600;SDS011;14241;49.260;10.496;2024-02-26T06:58:29;12.38;;;9.85;;
26600;SDS011;14241;49.260;10.496;2024-02-26T07:00:54;13.93;;;9.35;;
26600;SDS011;14241;49.260;10.496;2024-02-26T07:03:20;11.73;;;9.23;;
26600;SDS011;14241;49.260;10.496;2024-02-26T07:05:47;12.98;;;9.93;;
26600;SDS011;14241;49.260;10.496;2024-02-26T07:08:13;11.63;;;9.60;;
26600;SDS011;14241;49.260;10.496;2024-02-26T07:10:38;12.27;;;10.27;;
26600;SDS011;14241;49.260;10.496;2024-02-26T07:13:04;13.30;;;9.85;;
26600;SDS011;14241;49.260;10.496;2024-02-26T07:15:29;11.77;;;9.48;;
26600;SDS011;14241;49.260;10.496;2024-02-26T07:17:54;11.93;;;9.50;;
26600;SDS011;14241;49.260;10.496;2024-02-26T07:20:19;13.88;;;11.18;;
26600;SDS011;14241;49.260;10.496;2024-02-26T07:22:45;12.85;;;10.27;;
26600;SDS011;14241;49.260;10.496;2024-02-26T07:25:10;12.88;;;10.05;;
26600;SDS011;14241;49.260;10.496;2024-02-26T07:27:38;12.93;;;10.57;;
26600;SDS011;14241;49.260;10.496;2024-02-26T07:30:04;10.63;;;9.52;;
26600;SDS011;14241;49.260;10.496;2024-02-26T07:32:29;11.63;;;9.77;;
26600;SDS011;14241;49.260;10.496;2024-02-26T07:34:54;13.88;;;9.75;;
26600;SDS011;14241;49.260;10.496;2024-02-26T07:37:20;11.82;;;9.40;;
26600;SDS011;14241;49.260;10.496;2024-02-26T07:39:45;12.68;;;10.02;;
26600;SDS011;14241;49.260;10.496;2024-02-26T07:42:10;13.13;;;9.60;;
26600;SDS011;14241;49.260;10.496;2024-02-26T07:44:36;12.63;;;9.77;;
26600;SDS011;14241;49.260;10.496;2024-02-26T07:47:01;13.20;;;9.50;;
26600;SDS011;14241;49.260;10.496;2024-02-26T07:49:27;12.07;;;10.13;;
26600;SDS011;14241;49.260;10.496;2024-02-26T07:51:53;12.38;;;9.18;;
26600;SDS011;14241;49.260;10.496;2024-02-26T07:54:18;12.88;;;10.20;;
26600;SDS011;14241;49.260;10.496;2024-02-26T07:56:44;13.10;;;9.85;;
26600;SDS011;14241;49.260;10.496;2024-02-26T07:59:09;12.00;;;9.65;;
26600;SDS011;14241;49.260;10.496;2024-02-26T08:01:35;10.93;;;8.90;;
26600;SDS011;14241;49.260;10.496;2024-02-26T08:04:00;12.15;;;9.93;;
26600;SDS011;14241;49.260;10.496;2024-02-26T08:06:25;13.40;;;9.60;;
26600;SDS011;14241;49.260;10.496;2024-02-26T08:08:51;11.60;;;9.15;;
26600;SDS011;14241;49.260;10.496;2024-02-26T08:11:16;12.25;;;9.32;;
26600;SDS011;14241;49.260;10.496;2024-02-26T08:13:41;12.55;;;9.25;;
26600;SDS011;14241;49.260;10.496;2024-02-26T08:16:07;12.77;;;8.88;;
26600;SDS011;14241;49.260;10.496;2024-02-26T08:18:32;13.55;;;9.93;;
26600;SDS011;14241;49.260;10.496;2024-02-26T08:20:57;11.98;;;9.38;;
26600;SDS011;14241;49.260;10.496;2024-02-26T08:23:22;13.52;;;9.48;;
26600;SDS011;14241;49.260;10.496;2024-02-26T08:25:49;12.20;;;9.80;;
26600;SDS011;14241;49.260;10.496;2024-02-26T08:28:14;12.68;;;10.02;;
26600;SDS011;14241;49.260;10.496;2024-02-26T08:30:39;12.30;;;10.35;;
26600;SDS011;14241;49.260;10.496;2024-02-26T08:33:04;15.02;;;10.82;;
26600;SDS011;14241;49.260;10.496;2024-02-26T08:35:30;13.82;;;11.07;;
26600;SDS011;14241;49.260;10.496;2024-02-26T08:37:55;16.58;;;11.75;;
26600;SDS011;14241;49.260;10.496;2024-02-26T08:40:20;17.55;;;11.80;;
26600;SDS011;14241;49.260;10.496;2024-02-26T08:42:45;14.57;;;10.40;;
26600;SDS011;14241;49.260;10.496;2024-02-26T08:45:11;16.48;;;11.20;;
26600;SDS011;14241;49.260;10.496;2024-02-26T08:47:37;17.63;;;12.10;;
26600;SDS011;14241;49.260;10.496;2024-02-26T08:50:03;15.75;;;11.50;;
26600;SDS011;14241;49.260;10.496;2024-02-26T08:52:28;16.95;;;11.55;;
26600;SDS011;14241;49.260;10.496;2024-02-26T08:54:54;17.17;;;11.93;;
26600;SDS011;14241;49.260;10.496;2024-02-26T08:57:19;17.05;;;11.43;;
26600;SDS011;14241;49.260;10.496;2024-02-26T08:59:44;15.60;;;10.40;;
26600;SDS011;14241;49.260;10.496;2024-02-26T09:02:09;12.50;;;10.07;;
26600;SDS011;14241;49.260;10.496;2024-02-26T09:04:35;15.38;;;11.05;;
26600;SDS011;14241;49.260;10.496;2024-02-26T09:07:01;15.30;;;10.63;;
26600;SDS011;14241;49.260;10.496;2024-02-26T09:09:26;11.40;;;10.05;;
26600;SDS011;14241;49.260;10.496;2024-02-26T09:11:51;11.55;;;9.45;;
26600;SDS011;14241;49.260;10.496;2024-02-26T09:14:17;13.57;;;9.38;;
26600;SDS011;14241;49.260;10.496;2024-02-26T09:16:42;13.68;;;9.63;;
26600;SDS011;14241;49.260;10.496;2024-02-26T09:19:08;13.35;;;8.90;;
26600;SDS011;14241;49.260;10.496;2024-02-26T09:21:33;12.75;;;8.75;;
26600;SDS011;14241;49.260;10.496;2024-02-26T09:23:58;11.18;;;8.32;;
26600;SDS011;14241;49.260;10.496;2024-02-26T09:26:24;12.63;;;9.32;;
26600;SDS011;14241;49.260;10.496;2024-02-26T09:28:49;12.32;;;8.88;;
26600;SDS011;14241;49.260;10.496;2024-02-26T09:31:15;11.73;;;8.77;;
26600;SDS011;14241;49.260;10.496;2024-02-26T09:33:41;12.15;;;8.70;;
26600;SDS011;14241;49.260;10.496;2024-02-26T09:36:07;13.07;;;9.52;;
26600;SDS011;14241;49.260;10.496;2024-02-26T09:38:34;12.40;;;9.20;;
26600;SDS011;14241;49.260;10.496;2024-02-26T09:41:03;10.60;;;8.25;;
26600;SDS011;14241;49.260;10.496;2024-02-26T09:43:29;11.20;;;8.80;;
26600;SDS011;14241;49.260;10.496;2024-02-26T09:45:57;10.93;;;8.15;;
26600;SDS011;14241;49.260;10.496;2024-02-26T09:48:22;10.15;;;8.13;;
26600;SDS011;14241;49.260;10.496;2024-02-26T09:50:48;11.25;;;8.32;;
26600;SDS011;14241;49.260;10.496;2024-02-26T09:53:14;11.80;;;8.20;;
26600;SDS011;14241;49.260;10.496;2024-02-26T09:55:40;11.45;;;7.95;;
26600;SDS011;14241;49.260;10.496;2024-02-26T09:58:05;9.75;;;7.50;;
26600;SDS011;14241;49.260;10.496;2024-02-26T10:00:31;10.32;;;7.53;;
26600;SDS011;14241;49.260;10.496;2024-02-26T10:02:58;11.63;;;7.55;;
26600;SDS011;14241;49.260;10.496;2024-02-26T10:05:27;11.73;;;7.57;;
26600;SDS011;14241;49.260;10.496;2024-02-26T10:07:54;9.98;;;7.20;;
26600;SDS011;14241;49.260;10.496;2024-02-26T10:10:21;9.43;;;6.53;;
26600;SDS011;14241;49.260;10.496;2024-02-26T10:12:47;10.68;;;7.28;;
26600;SDS011;14241;49.260;10.496;2024-02-26T10:15:12;9.73;;;7.38;;
26600;SDS011;14241;49.260;10.496;2024-02-26T10:17:37;9.18;;;7.53;;
26600;SDS011;14241;49.260;10.496;2024-02-26T10:20:11;10.32;;;7.63;;
26600;SDS011;14241;49.260;10.496;2024-02-26T10:22:36;11.30;;;7.68;;
26600;SDS011;14241;49.260;10.496;2024-02-26T10:25:02;11.93;;;7.03;;
26600;SDS011;14241;49.260;10.496;2024-02-26T10:27:28;7.97;;;6.72;;
26600;SDS011;14241;49.260;10.496;2024-02-26T10:29:56;10.80;;;7.28;;
26600;SDS011;14241;49.260;10.496;2024-02-26T10:32:21;11.10;;;7.60;;
26600;SDS011;14241;49.260;10.496;2024-02-26T10:34:47;9.38;;;7.38;;
26600;SDS011;14241;49.260;10.496;2024-02-26T10:37:12;11.38;;;7.85;;
26600;SDS011;14241;49.260;10.496;2024-02-26T10:39:37;10.20;;;7.32;;
26600;SDS011;14241;49.260;10.496;2024-02-26T10:42:03;9.88;;;7.03;;
26600;SDS011;14241;49.260;10.496;2024-02-26T10:44:34;8.48;;;7.07;;
26600;SDS011;14241;49.260;10.496;2024-02-26T10:46:59;10.73;;;8.10;;
26600;SDS011;14241;49.260;10.496;2024-02-26T10:49:25;10.23;;;8.40;;
26600;SDS011;14241;49.260;10.496;2024-02-26T10:51:59;15.70;;;8.38;;
26600;SDS011;14241;49.260;10.496;2024-02-26T10:54:26;11.20;;;7.72;;
26600;SDS011;14241;49.260;10.496;2024-02-26T10:56:52;10.20;;;7.00;;
26600;SDS011;14241;49.260;10.496;2024-02-26T10:59:18;10.15;;;7.70;;
26600;SDS011;14241;49.260;10.496;2024-02-26T11:01:46;10.35;;;7.45;;
26600;SDS011;14241;49.260;10.496;2024-02-26T11:04:12;11.63;;;7.38;;
26600;SDS011;14241;49.260;10.496;2024-02-26T11:06:38;10.00;;;7.03;;
26600;SDS011;14241;49.260;10.496;2024-02-26T11:09:03;8.43;;;6.18;;
26600;SDS011;14241;49.260;10.496;2024-02-26T11:11:30;11.65;;;6.03;;
26600;SDS011;14241;49.260;10.496;2024-02-26T11:13:56;9.07;;;6.00;;
26600;SDS011;14241;49.260;10.496;2024-02-26T11:16:22;10.82;;;6.57;;
26600;SDS011;14241;49.260;10.496;2024-02-26T11:18:48;9.55;;;6.30;;
26600;SDS011;14241;49.260;10.496;2024-02-26T11:21:17;11.55;;;6.35;;
26600;SDS011;14241;49.260;10.496;2024-02-26T11:23:45;8.15;;;6.05;;
26600;SDS011;14241;49.260;10.496;2024-02-26T11:26:11;8.18;;;5.82;;
26600;SDS011;14241;49.260;10.496;2024-02-26T11:28:37;8.15;;;5.85;;
26600;SDS011;14241;49.260;10.496;2024-02-26T11:31:03;13.95;;;6.18;;
26600;SDS011;14241;49.260;10.496;2024-02-26T11:33:29;8.45;;;5.88;;
26600;SDS011;14241;49.260;10.496;2024-02-26T11:35:55;8.55;;;5.80;;
26600;SDS011;14241;49.260;10.496;2024-02-26T11:38:21;6.63;;;5.40;;
26600;SDS011;14241;49.260;10.496;2024-02-26T11:40:47;6.85;;;4.63;;
26600;SDS011;14241;49.260;10.496;2024-02-26T11:43:12;8.55;;;5.30;;
26600;SDS011;14241;49.260;10.496;2024-02-26T11:45:38;7.07;;;4.82;;
26600;SDS011;14241;49.260;10.496;2024-02-26T11:50:38;5.95;;;3.85;;
26600;SDS011;14241;49.260;10.496;2024-02-26T11:55:44;6.20;;;4.35;;
26600;SDS011;14241;49.260;10.496;2024-02-26T11:58:10;6.97;;;4.32;;
26600;SDS011;14241;49.260;10.496;2024-02-26T12:00:35;6.88;;;3.90;;
26600;SDS011;14241;49.260;10.496;2024-02-26T12:03:00;5.07;;;3.70;;
26600;SDS011;14241;49.260;10.496;2024-02-26T12:05:32;4.22;;;3.65;;
26600;SDS011;14241;49.260;10.496;2024-02-26T12:10:36;4.82;;;4.03;;
26600;SDS011;14241;49.260;10.496;2024-02-26T12:13:07;5.45;;;3.88;;
26600;SDS011;14241;49.260;10.496;2024-02-26T12:15:33;6.47;;;3.47;;
26600;SDS011;14241;49.260;10.496;2024-02-26T12:18:06;5.10;;;3.60;;
26600;SDS011;14241;49.260;10.496;2024-02-26T12:20:33;5.53;;;3.33;;
26600;SDS011;14241;49.260;10.496;2024-02-26T12:22:58;5.22;;;3.55;;
26600;SDS011;14241;49.260;10.496;2024-02-26T12:25:28;5.82;;;4.28;;
26600;SDS011;14241;49.260;10.496;2024-02-26T12:27:54;5.65;;;3.97;;
26600;SDS011;14241;49.260;10.496;2024-02-26T12:30:20;6.82;;;4.13;;
26600;SDS011;14241;49.260;10.496;2024-02-26T12:32:46;7.22;;;3.97;;
26600;SDS011;14241;49.260;10.496;2024-02-26T12:35:12;7.18;;;4.35;;
26600;SDS011;14241;49.260;10.496;2024-02-26T12:37:38;5.20;;;3.30;;
26600;SDS011;14241;49.260;10.496;2024-02-26T12:40:07;3.85;;;3.22;;
26600;SDS011;14241;49.260;10.496;2024-02-26T12:42:34;5.85;;;4.07;;
26600;SDS011;14241;49.260;10.496;2024-02-26T12:45:04;4.13;;;3.53;;
26600;SDS011;14241;49.260;10.496;2024-02-26T12:47:35;6.63;;;3.55;;
26600;SDS011;14241;49.260;10.496;2024-02-26T12:50:00;5.60;;;3.63;;
26600;SDS011;14241;49.260;10.496;2024-02-26T12:52:25;4.30;;;2.72;;
26600;SDS011;14241;49.260;10.496;2024-02-26T12:54:50;4.20;;;2.92;;
26600;SDS011;14241;49.260;10.496;2024-02-26T12:57:16;3.67;;;2.75;;
26600;SDS011;14241;49.260;10.496;2024-02-26T12:59:41;4.97;;;2.63;;
26600;SDS011;14241;49.260;10.496;2024-02-26T13:02:07;4.30;;;2.70;;
26600;SDS011;14241;49.260;10.496;2024-02-26T13:04:32;5.05;;;2.40;;
26600;SDS011;14241;49.260;10.496;2024-02-26T13:06:58;4.30;;;2.67;;
26600;SDS011;14241;49.260;10.496;2024-02-26T13:09:28;4.97;;;3.10;;
26600;SDS011;14241;49.260;10.496;2024-02-26T13:11:56;4.38;;;3.35;;
26600;SDS011;14241;49.260;10.496;2024-02-26T13:14:21;5.15;;;3.10;;
26600;SDS011;14241;49.260;10.496;2024-02-26T13:16:56;7.90;;;3.10;;
26600;SDS011;14241;49.260;10.496;2024-02-26T13:19:22;3.88;;;2.95;;
26600;SDS011;14241;49.260;10.496;2024-02-26T13:21:47;6.63;;;2.78;;
26600;SDS011;14241;49.260;10.496;2024-02-26T13:24:13;5.32;;;2.75;;
26600;SDS011;14241;49.260;10.496;2024-02-26T13:26:38;4.22;;;2.85;;
26600;SDS011;14241;49.260;10.496;2024-02-26T13:29:04;5.45;;;2.90;;
26600;SDS011;14241;49.260;10.496;2024-02-26T13:31:30;4.93;;;2.50;;
26600;SDS011;14241;49.260;10.496;2024-02-26T13:33:55;4.68;;;2.67;;
26600;SDS011;14241;49.260;10.496;2024-02-26T13:36:24;4.60;;;2.30;;
26600;SDS011;14241;49.260;10.496;2024-02-26T13:38:52;3.35;;;2.33;;
26600;SDS011;14241;49.260;10.496;2024-02-26T13:41:18;3.03;;;1.88;;
26600;SDS011;14241;49.260;10.496;2024-02-26T13:43:43;6.22;;;1.67;;
26600;SDS011;14241;49.260;10.496;2024-02-26T13:46:09;3.00;;;1.67;;
26600;SDS011;14241;49.260;10.496;2024-02-26T13:48:36;2.58;;;1.80;;
26600;SDS011;14241;49.260;10.496;2024-02-26T13:51:01;1.85;;;1.40;;
26600;SDS011;14241;49.260;10.496;2024-02-26T13:53:26;4.00;;;1.90;;
26600;SDS011;14241;49.260;10.496;2024-02-26T13:55:52;3.22;;;2.00;;
26600;SDS011;14241;49.260;10.496;2024-02-26T13:58:17;2.50;;;1.70;;
26600;SDS011;14241;49.260;10.496;2024-02-26T14:00:47;2.42;;;1.60;;
26600;SDS011;14241;49.260;10.496;2024-02-26T14:03:13;2.90;;;1.55;;
26600;SDS011;14241;49.260;10.496;2024-02-26T14:05:38;3.28;;;1.80;;
26600;SDS011;14241;49.260;10.496;2024-02-26T14:08:03;4.10;;;1.73;;
26600;SDS011;14241;49.260;10.496;2024-02-26T14:10:29;1.50;;;1.38;;
26600;SDS011;14241;49.260;10.496;2024-02-26T14:12:55;2.92;;;1.70;;
26600;SDS011;14241;49.260;10.496;2024-02-26T14:15:21;4.53;;;1.75;;
26600;SDS011;14241;49.260;10.496;2024-02-26T14:17:46;3.15;;;2.08;;
26600;SDS011;14241;49.260;10.496;2024-02-26T14:20:18;2.95;;;1.95;;
26600;SDS011;14241;49.260;10.496;2024-02-26T14:22:43;2.75;;;1.88;;
26600;SDS011;14241;49.260;10.496;2024-02-26T14:25:08;3.03;;;2.13;;
26600;SDS011;14241;49.260;10.496;2024-02-26T14:27:34;3.03;;;1.90;;